MSR732 EDDB-HECA
Flight info
| Callsign | MSR732 |
|---|---|
| Flight time | N/A |
| Altitude | 31000 |
| Route | LUROS3Q/06R LUROS M725 HDO DCT EVIKU/N0472F370 DCT ODNEM DCT XOMBA DCT KEROP DCT TISAK DCT RAXAD/N0472F390 DCT RUGAS DCT KOROS DCT KUMBI L612 BLT A16 CVO |
| Aircraft | B77W/H-SDE1E2E3FGHIJ2J3J4J5M1RWXY/LB1D1 |
Departure
| Time | 2026-05-05 20:51 |
|---|---|
| Airport | Berlin Brandenburg Airport (EDDB) |
Arrival
| Time | N/A |
|---|---|
| Airport | Cairo International Airport (HECA) |
| Time | Latitude | Longitude | Altitude | Speed | Heading |
|---|---|---|---|---|---|
| 2026-05-05 20:16 | 52.36426 | 13.50542 | 146 ft | 0 kts | 68° |
| 2026-05-05 20:40 | 52.36424 | 13.50534 | 146 ft | 2 kts | 68° |
| 2026-05-05 20:40 | 52.36418 | 13.50510 | 146 ft | 2 kts | 68° |
| 2026-05-05 20:41 | 52.36414 | 13.50483 | 146 ft | 2 kts | 87° |
| 2026-05-05 20:41 | 52.36416 | 13.50452 | 146 ft | 2 kts | 109° |
| 2026-05-05 20:41 | 52.36424 | 13.50427 | 146 ft | 2 kts | 128° |
| 2026-05-05 20:41 | 52.36436 | 13.50407 | 146 ft | 2 kts | 147° |
| 2026-05-05 20:42 | 52.36447 | 13.50397 | 146 ft | 1 kts | 160° |
| 2026-05-05 20:42 | 52.36448 | 13.50397 | 146 ft | 0 kts | 160° |
| 2026-05-05 20:43 | 52.36430 | 13.50408 | 146 ft | 6 kts | 159° |
| 2026-05-05 20:44 | 52.36351 | 13.50453 | 146 ft | 14 kts | 161° |
| 2026-05-05 20:44 | 52.36233 | 13.50527 | 146 ft | 17 kts | 155° |
| 2026-05-05 20:44 | 52.36121 | 13.50605 | 146 ft | 16 kts | 157° |
| 2026-05-05 20:44 | 52.36031 | 13.50662 | 146 ft | 10 kts | 157° |
| 2026-05-05 20:45 | 52.35823 | 13.50766 | 146 ft | 15 kts | 207° |
| 2026-05-05 20:45 | 52.35771 | 13.50609 | 146 ft | 14 kts | 249° |
| 2026-05-05 20:45 | 52.35731 | 13.50444 | 149 ft | 17 kts | 248° |
| 2026-05-05 20:46 | 52.35670 | 13.50181 | 150 ft | 25 kts | 248° |
| 2026-05-05 20:46 | 52.35604 | 13.49906 | 153 ft | 24 kts | 249° |
| 2026-05-05 20:46 | 52.35539 | 13.49631 | 155 ft | 23 kts | 248° |
| 2026-05-05 20:46 | 52.35476 | 13.49364 | 153 ft | 24 kts | 248° |
| 2026-05-05 20:47 | 52.35409 | 13.49087 | 153 ft | 25 kts | 248° |
| 2026-05-05 20:47 | 52.35343 | 13.48802 | 153 ft | 25 kts | 248° |
| 2026-05-05 20:47 | 52.35275 | 13.48520 | 153 ft | 24 kts | 249° |
| 2026-05-05 20:47 | 52.35217 | 13.48261 | 153 ft | 21 kts | 244° |
| 2026-05-05 20:48 | 52.35155 | 13.48022 | 153 ft | 20 kts | 249° |
| 2026-05-05 20:48 | 52.35093 | 13.47762 | 149 ft | 24 kts | 247° |
| 2026-05-05 20:48 | 52.35019 | 13.47442 | 145 ft | 28 kts | 248° |
| 2026-05-05 20:48 | 52.34948 | 13.47132 | 143 ft | 21 kts | 249° |
| 2026-05-05 20:49 | 52.34893 | 13.46906 | 145 ft | 19 kts | 247° |
| 2026-05-05 20:49 | 52.34840 | 13.46741 | 146 ft | 10 kts | 214° |
| 2026-05-05 20:49 | 52.34746 | 13.46747 | 146 ft | 12 kts | 158° |
| 2026-05-05 20:49 | 52.34656 | 13.46808 | 146 ft | 15 kts | 158° |
| 2026-05-05 20:50 | 52.34565 | 13.46919 | 146 ft | 15 kts | 97° |
| 2026-05-05 20:50 | 52.34608 | 13.47116 | 144 ft | 29 kts | 68° |
| 2026-05-05 20:50 | 52.34793 | 13.47889 | 147 ft | 115 kts | 69° |
| 2026-05-05 20:50 | 52.35220 | 13.49605 | 356 ft | 177 kts | 63° |
| 2026-05-05 20:51 | 52.35720 | 13.51526 | 1509 ft | 177 kts | 67° |
| 2026-05-05 20:51 | 52.35979 | 13.53367 | 2648 ft | 167 kts | 84° |
| 2026-05-05 20:51 | 52.35811 | 13.55376 | 3202 ft | 189 kts | 108° |
| 2026-05-05 20:51 | 52.35046 | 13.57299 | 3862 ft | 209 kts | 135° |
| 2026-05-05 20:52 | 52.33696 | 13.58673 | 4583 ft | 229 kts | 151° |
| 2026-05-05 20:52 | 52.32195 | 13.60114 | 5573 ft | 233 kts | 133° |
| 2026-05-05 20:52 | 52.31346 | 13.62377 | 6397 ft | 239 kts | 103° |
| 2026-05-05 20:52 | 52.31325 | 13.65156 | 7267 ft | 246 kts | 78° |
| 2026-05-05 20:53 | 52.31788 | 13.67879 | 8262 ft | 250 kts | 73° |
| 2026-05-05 20:53 | 52.32351 | 13.70682 | 9182 ft | 256 kts | 73° |
| 2026-05-05 20:53 | 52.32840 | 13.73474 | 10051 ft | 260 kts | 85° |
| 2026-05-05 20:53 | 52.32875 | 13.76466 | 10764 ft | 272 kts | 94° |
| 2026-05-05 20:54 | 52.32757 | 13.79646 | 11350 ft | 289 kts | 95° |
| 2026-05-05 20:54 | 52.32616 | 13.83178 | 11994 ft | 308 kts | 95° |
| 2026-05-05 20:54 | 52.32471 | 13.87034 | 12650 ft | 327 kts | 95° |
| 2026-05-05 20:54 | 52.32317 | 13.91041 | 13322 ft | 345 kts | 97° |
| 2026-05-05 20:55 | 52.31898 | 13.94920 | 13947 ft | 359 kts | 107° |
| 2026-05-05 20:55 | 52.30886 | 13.99223 | 14746 ft | 372 kts | 119° |
| 2026-05-05 20:55 | 52.29325 | 14.03126 | 15812 ft | 376 kts | 131° |
| 2026-05-05 20:55 | 52.27415 | 14.06267 | 16835 ft | 378 kts | 142° |
| 2026-05-05 20:56 | 52.25011 | 14.08878 | 17845 ft | 382 kts | 154° |
| 2026-05-05 20:56 | 52.22299 | 14.10631 | 18812 ft | 388 kts | 166° |
| 2026-05-05 20:56 | 52.19440 | 14.11477 | 19782 ft | 391 kts | 174° |
| 2026-05-05 20:56 | 52.16692 | 14.12016 | 20804 ft | 393 kts | 174° |
| 2026-05-05 20:57 | 52.13863 | 14.12570 | 21775 ft | 396 kts | 175° |
| 2026-05-05 20:57 | 52.11086 | 14.13123 | 22660 ft | 399 kts | 175° |
| 2026-05-05 20:57 | 52.08262 | 14.13691 | 23531 ft | 403 kts | 175° |
| 2026-05-05 20:57 | 52.05356 | 14.14280 | 24360 ft | 408 kts | 175° |
| 2026-05-05 20:58 | 52.02424 | 14.14877 | 25177 ft | 412 kts | 175° |
| 2026-05-05 20:58 | 51.99186 | 14.15537 | 26101 ft | 416 kts | 174° |
| 2026-05-05 20:58 | 51.96138 | 14.16160 | 26904 ft | 421 kts | 174° |
| 2026-05-05 20:58 | 51.93018 | 14.16797 | 27555 ft | 429 kts | 174° |
| 2026-05-05 20:59 | 51.90034 | 14.17407 | 28296 ft | 433 kts | 174° |
| 2026-05-05 20:59 | 51.87022 | 14.18020 | 29134 ft | 435 kts | 174° |
| 2026-05-05 20:59 | 51.84010 | 14.18632 | 29977 ft | 436 kts | 174° |
| 2026-05-05 20:59 | 51.80999 | 14.19243 | 30688 ft | 437 kts | 175° |
| 2026-05-05 21:00 | 51.77990 | 14.19854 | 30792 ft | 437 kts | 174° |
| 2026-05-05 21:00 | 51.74983 | 14.20465 | 30791 ft | 433 kts | 174° |
| 2026-05-05 21:00 | 51.69030 | 14.21672 | 30781 ft | 432 kts | 175° |
| 2026-05-05 21:01 | 51.63047 | 14.22879 | 30785 ft | 432 kts | 175° |
| 2026-05-05 21:01 | 51.57106 | 14.24076 | 30779 ft | 431 kts | 175° |
| 2026-05-05 21:02 | 51.51133 | 14.25277 | 30778 ft | 433 kts | 175° |
| 2026-05-05 21:02 | 51.45157 | 14.26479 | 30768 ft | 432 kts | 174° |
| 2026-05-05 21:03 | 51.39196 | 14.27679 | 30767 ft | 433 kts | 175° |
| 2026-05-05 21:03 | 51.33205 | 14.28880 | 30760 ft | 434 kts | 175° |
| 2026-05-05 21:04 | 51.27104 | 14.30099 | 30765 ft | 434 kts | 175° |
| 2026-05-05 21:04 | 51.21059 | 14.31302 | 30756 ft | 434 kts | 174° |
| 2026-05-05 21:05 | 51.15074 | 14.32490 | 30758 ft | 434 kts | 174° |
| 2026-05-05 21:05 | 51.08997 | 14.33693 | 30759 ft | 436 kts | 175° |
| 2026-05-05 21:06 | 51.03011 | 14.34873 | 30741 ft | 435 kts | 174° |
| 2026-05-05 21:06 | 50.96881 | 14.36077 | 30749 ft | 446 kts | 174° |
| 2026-05-05 21:07 | 50.93640 | 14.36717 | 30910 ft | 461 kts | 173° |
| 2026-05-05 21:07 | 50.90471 | 14.37720 | 31324 ft | 469 kts | 168° |
| 2026-05-05 21:07 | 50.87305 | 14.38898 | 32128 ft | 468 kts | 168° |
| 2026-05-05 21:07 | 50.84148 | 14.40081 | 33181 ft | 462 kts | 168° |
| 2026-05-05 21:08 | 50.81059 | 14.41235 | 34127 ft | 456 kts | 168° |
| 2026-05-05 21:08 | 50.77978 | 14.42382 | 34875 ft | 453 kts | 168° |
| 2026-05-05 21:08 | 50.74926 | 14.43516 | 35382 ft | 452 kts | 168° |
| 2026-05-05 21:08 | 50.71894 | 14.44640 | 35811 ft | 453 kts | 168° |
| 2026-05-05 21:09 | 50.68826 | 14.45776 | 36252 ft | 453 kts | 169° |
| 2026-05-05 21:09 | 50.65754 | 14.46910 | 36652 ft | 453 kts | 169° |
| 2026-05-05 21:09 | 50.59620 | 14.49170 | 36735 ft | 455 kts | 169° |
| 2026-05-05 21:10 | 50.53497 | 14.51420 | 36739 ft | 453 kts | 169° |
| 2026-05-05 21:10 | 50.47533 | 14.54638 | 36737 ft | 456 kts | 155° |
| 2026-05-05 21:11 | 50.42353 | 14.60485 | 36742 ft | 466 kts | 137° |
| 2026-05-05 21:11 | 50.37968 | 14.67925 | 36750 ft | 467 kts | 135° |
| 2026-05-05 21:12 | 50.33606 | 14.75442 | 36749 ft | 467 kts | 135° |
| 2026-05-05 21:12 | 50.29230 | 14.82929 | 36747 ft | 467 kts | 135° |
| 2026-05-05 21:13 | 50.24872 | 14.90352 | 36743 ft | 466 kts | 135° |
| 2026-05-05 21:13 | 50.20150 | 14.98360 | 36743 ft | 468 kts | 135° |
| 2026-05-05 21:14 | 50.15559 | 15.06117 | 36747 ft | 468 kts | 135° |
| 2026-05-05 21:14 | 50.11129 | 15.13577 | 36747 ft | 468 kts | 135° |
| 2026-05-05 21:15 | 50.06811 | 15.20828 | 36744 ft | 468 kts | 135° |
| 2026-05-05 21:15 | 50.02118 | 15.28687 | 36748 ft | 468 kts | 135° |
| 2026-05-05 21:16 | 49.97524 | 15.36355 | 36746 ft | 468 kts | 135° |
| 2026-05-05 21:16 | 49.92905 | 15.44042 | 36756 ft | 468 kts | 135° |
| 2026-05-05 21:17 | 49.88186 | 15.51869 | 36759 ft | 470 kts | 135° |
| 2026-05-05 21:17 | 49.83426 | 15.59740 | 36757 ft | 469 kts | 135° |
| 2026-05-05 21:18 | 49.78796 | 15.67372 | 36745 ft | 471 kts | 135° |
| 2026-05-05 21:18 | 49.74298 | 15.74766 | 36753 ft | 471 kts | 135° |
| 2026-05-05 21:19 | 49.69615 | 15.82441 | 36751 ft | 470 kts | 135° |
| 2026-05-05 21:19 | 49.65062 | 15.89881 | 36747 ft | 471 kts | 135° |
| 2026-05-05 21:20 | 49.60587 | 15.97172 | 36745 ft | 469 kts | 135° |
| 2026-05-05 21:20 | 49.56049 | 16.04545 | 36754 ft | 471 kts | 135° |
| 2026-05-05 21:21 | 49.51505 | 16.11905 | 36748 ft | 471 kts | 135° |
| 2026-05-05 21:21 | 49.46958 | 16.19249 | 36755 ft | 472 kts | 135° |
| 2026-05-05 21:22 | 49.42430 | 16.26543 | 36767 ft | 473 kts | 135° |
| 2026-05-05 21:22 | 49.37899 | 16.33819 | 36764 ft | 472 kts | 135° |
| 2026-05-05 21:23 | 49.33359 | 16.41090 | 36775 ft | 473 kts | 135° |
| 2026-05-05 21:23 | 49.28822 | 16.48335 | 36782 ft | 474 kts | 135° |
| 2026-05-05 21:24 | 49.24265 | 16.55591 | 36776 ft | 474 kts | 135° |
| 2026-05-05 21:24 | 49.19698 | 16.62843 | 36776 ft | 474 kts | 135° |
| 2026-05-05 21:25 | 49.15093 | 16.70134 | 36784 ft | 476 kts | 136° |
| 2026-05-05 21:25 | 49.10508 | 16.77373 | 36773 ft | 475 kts | 135° |
| 2026-05-05 21:26 | 49.05941 | 16.84564 | 36778 ft | 475 kts | 135° |
| 2026-05-05 21:26 | 49.01351 | 16.91768 | 36767 ft | 475 kts | 135° |
| 2026-05-05 21:27 | 48.96745 | 16.98979 | 36756 ft | 475 kts | 135° |
| 2026-05-05 21:27 | 48.92129 | 17.06186 | 36759 ft | 475 kts | 135° |
| 2026-05-05 21:28 | 48.87528 | 17.13328 | 36757 ft | 475 kts | 137° |
| 2026-05-05 21:28 | 48.82221 | 17.19180 | 36776 ft | 473 kts | 151° |
| 2026-05-05 21:29 | 48.76508 | 17.24039 | 36782 ft | 472 kts | 152° |
| 2026-05-05 21:29 | 48.70781 | 17.28843 | 36798 ft | 472 kts | 152° |
| 2026-05-05 21:30 | 48.65031 | 17.33634 | 36793 ft | 472 kts | 152° |
| 2026-05-05 21:30 | 48.59262 | 17.38416 | 36794 ft | 473 kts | 152° |
| 2026-05-05 21:31 | 48.53501 | 17.43174 | 36807 ft | 474 kts | 152° |
| 2026-05-05 21:31 | 48.47723 | 17.47931 | 36804 ft | 473 kts | 153° |
| 2026-05-05 21:32 | 48.41955 | 17.52665 | 36803 ft | 473 kts | 153° |
| 2026-05-05 21:32 | 48.36160 | 17.57408 | 36809 ft | 474 kts | 153° |
| 2026-05-05 21:33 | 48.30360 | 17.62143 | 36814 ft | 473 kts | 153° |
| 2026-05-05 21:33 | 48.24593 | 17.66838 | 36806 ft | 473 kts | 153° |
| 2026-05-05 21:34 | 48.18788 | 17.71552 | 36807 ft | 473 kts | 153° |
| 2026-05-05 21:34 | 48.13004 | 17.76236 | 36817 ft | 474 kts | 153° |
| 2026-05-05 21:35 | 48.07234 | 17.80898 | 36823 ft | 474 kts | 154° |
| 2026-05-05 21:35 | 48.01447 | 17.85560 | 36821 ft | 474 kts | 153° |
| 2026-05-05 21:36 | 47.95624 | 17.90240 | 36830 ft | 475 kts | 153° |
| 2026-05-05 21:36 | 47.89819 | 17.94893 | 36828 ft | 474 kts | 153° |
| 2026-05-05 21:37 | 47.83981 | 17.99561 | 36833 ft | 475 kts | 153° |
| 2026-05-05 21:37 | 47.78183 | 18.04185 | 36837 ft | 475 kts | 153° |
| 2026-05-05 21:38 | 47.72575 | 18.09458 | 36845 ft | 486 kts | 146° |
| 2026-05-05 21:38 | 47.66909 | 18.15575 | 36854 ft | 501 kts | 145° |
| 2026-05-05 21:39 | 47.61254 | 18.21660 | 36865 ft | 508 kts | 145° |
| 2026-05-05 21:39 | 47.55543 | 18.27781 | 36865 ft | 507 kts | 145° |
| 2026-05-05 21:40 | 47.49814 | 18.33900 | 36871 ft | 507 kts | 145° |
| 2026-05-05 21:40 | 47.44102 | 18.39981 | 36866 ft | 508 kts | 145° |
| 2026-05-05 21:41 | 47.38367 | 18.46069 | 36874 ft | 508 kts | 145° |
| 2026-05-05 21:41 | 47.32622 | 18.52150 | 36883 ft | 507 kts | 145° |
| 2026-05-05 21:42 | 47.26872 | 18.58220 | 36886 ft | 509 kts | 145° |
| 2026-05-05 21:42 | 47.21053 | 18.64344 | 36887 ft | 509 kts | 145° |
| 2026-05-05 21:43 | 47.15283 | 18.70401 | 36899 ft | 509 kts | 146° |
| 2026-05-05 21:43 | 47.09550 | 18.76403 | 36909 ft | 509 kts | 146° |
| 2026-05-05 21:44 | 47.03803 | 18.82403 | 36911 ft | 509 kts | 146° |
| 2026-05-05 21:44 | 46.98058 | 18.88384 | 36921 ft | 509 kts | 146° |
| 2026-05-05 21:45 | 46.92276 | 18.94389 | 36921 ft | 510 kts | 146° |
| 2026-05-05 21:45 | 46.86517 | 19.00352 | 36917 ft | 509 kts | 146° |
| 2026-05-05 21:46 | 46.80776 | 19.06282 | 36911 ft | 510 kts | 146° |
| 2026-05-05 21:46 | 46.74988 | 19.12244 | 36927 ft | 511 kts | 146° |
| 2026-05-05 21:47 | 46.69172 | 19.18219 | 36929 ft | 512 kts | 146° |
| 2026-05-05 21:47 | 46.63374 | 19.24160 | 36928 ft | 511 kts | 146° |
| 2026-05-05 21:48 | 46.57595 | 19.30064 | 36928 ft | 512 kts | 146° |
| 2026-05-05 21:48 | 46.51779 | 19.35991 | 36934 ft | 511 kts | 146° |
| 2026-05-05 21:49 | 46.45990 | 19.41875 | 36938 ft | 512 kts | 146° |
| 2026-05-05 21:49 | 46.40149 | 19.47796 | 36938 ft | 512 kts | 146° |
| 2026-05-05 21:50 | 46.34331 | 19.53676 | 36947 ft | 512 kts | 146° |
| 2026-05-05 21:50 | 46.28519 | 19.59532 | 36933 ft | 512 kts | 146° |
| 2026-05-05 21:51 | 46.22653 | 19.65427 | 36934 ft | 513 kts | 147° |
| 2026-05-05 21:51 | 46.16654 | 19.70844 | 36954 ft | 512 kts | 155° |
| 2026-05-05 21:52 | 46.07111 | 19.77626 | 36949 ft | 511 kts | 155° |
| 2026-05-05 21:53 | 46.00720 | 19.82124 | 36951 ft | 511 kts | 155° |
| 2026-05-05 21:53 | 45.94353 | 19.86594 | 36959 ft | 512 kts | 155° |
| 2026-05-05 21:54 | 45.87999 | 19.91041 | 36951 ft | 511 kts | 155° |
| 2026-05-05 21:54 | 45.81594 | 19.95509 | 36955 ft | 513 kts | 155° |
| 2026-05-05 21:55 | 45.75176 | 19.99974 | 36963 ft | 514 kts | 155° |
| 2026-05-05 21:55 | 45.68755 | 20.04429 | 36953 ft | 514 kts | 156° |
| 2026-05-05 21:56 | 45.62327 | 20.08876 | 36953 ft | 515 kts | 155° |
| 2026-05-05 21:56 | 45.55890 | 20.13319 | 36959 ft | 516 kts | 156° |
| 2026-05-05 21:57 | 45.49467 | 20.17740 | 36951 ft | 515 kts | 156° |
| 2026-05-05 21:57 | 45.43033 | 20.22158 | 36961 ft | 516 kts | 155° |
| 2026-05-05 21:58 | 45.36565 | 20.26591 | 36964 ft | 518 kts | 155° |
| 2026-05-05 21:58 | 45.30096 | 20.31016 | 36972 ft | 517 kts | 155° |
| 2026-05-05 21:59 | 45.23602 | 20.35446 | 36972 ft | 519 kts | 156° |
| 2026-05-05 21:59 | 45.17016 | 20.39928 | 36973 ft | 518 kts | 155° |
| 2026-05-05 22:00 | 45.10289 | 20.44493 | 36984 ft | 519 kts | 155° |
| 2026-05-05 22:00 | 45.03411 | 20.49149 | 36986 ft | 520 kts | 156° |
| 2026-05-05 22:01 | 44.96665 | 20.53702 | 36986 ft | 520 kts | 156° |
| 2026-05-05 22:01 | 44.89907 | 20.58253 | 36987 ft | 520 kts | 156° |
| 2026-05-05 22:02 | 44.83213 | 20.62748 | 36987 ft | 520 kts | 156° |
| 2026-05-05 22:02 | 44.76454 | 20.67275 | 36981 ft | 522 kts | 156° |
| 2026-05-05 22:03 | 44.69812 | 20.71713 | 36981 ft | 522 kts | 156° |
| 2026-05-05 22:03 | 44.63134 | 20.76163 | 36975 ft | 522 kts | 156° |
| 2026-05-05 22:04 | 44.56467 | 20.80594 | 36983 ft | 524 kts | 156° |
| 2026-05-05 22:04 | 44.49390 | 20.85286 | 36979 ft | 522 kts | 156° |
| 2026-05-05 22:05 | 44.42705 | 20.89706 | 36984 ft | 523 kts | 156° |
| 2026-05-05 22:05 | 44.36037 | 20.94104 | 36988 ft | 524 kts | 156° |
| 2026-05-05 22:06 | 44.29443 | 20.98441 | 36984 ft | 524 kts | 156° |
| 2026-05-05 22:06 | 44.22775 | 21.02817 | 36991 ft | 525 kts | 156° |
| 2026-05-05 22:07 | 44.16125 | 21.07170 | 37003 ft | 528 kts | 156° |
| 2026-05-05 22:07 | 44.09494 | 21.11500 | 37003 ft | 526 kts | 156° |
| 2026-05-05 22:08 | 44.02884 | 21.15805 | 37009 ft | 527 kts | 156° |
| 2026-05-05 22:08 | 43.96228 | 21.20129 | 36993 ft | 527 kts | 156° |
| 2026-05-05 22:09 | 43.89622 | 21.24410 | 36994 ft | 526 kts | 156° |
| 2026-05-05 22:09 | 43.82981 | 21.28704 | 36989 ft | 529 kts | 156° |
| 2026-05-05 22:10 | 43.76362 | 21.32972 | 37010 ft | 529 kts | 156° |
| 2026-05-05 22:10 | 43.69703 | 21.37256 | 37017 ft | 529 kts | 156° |
| 2026-05-05 22:11 | 43.63005 | 21.41555 | 37020 ft | 530 kts | 156° |
| 2026-05-05 22:11 | 43.56340 | 21.45821 | 37028 ft | 531 kts | 156° |
| 2026-05-05 22:12 | 43.49670 | 21.50080 | 37033 ft | 530 kts | 156° |
| 2026-05-05 22:12 | 43.42985 | 21.54339 | 37028 ft | 530 kts | 156° |
| 2026-05-05 22:13 | 43.36291 | 21.58593 | 37038 ft | 533 kts | 156° |
| 2026-05-05 22:13 | 43.29597 | 21.62836 | 37031 ft | 532 kts | 156° |
| 2026-05-05 22:14 | 43.22899 | 21.67072 | 37029 ft | 532 kts | 157° |
| 2026-05-05 22:14 | 43.16191 | 21.71304 | 37034 ft | 533 kts | 157° |
| 2026-05-05 22:15 | 43.09425 | 21.75561 | 37041 ft | 535 kts | 157° |
| 2026-05-05 22:15 | 43.02675 | 21.79799 | 37041 ft | 534 kts | 157° |
| 2026-05-05 22:16 | 42.95940 | 21.84017 | 37047 ft | 535 kts | 157° |
| 2026-05-05 22:16 | 42.89178 | 21.88241 | 37053 ft | 535 kts | 157° |
| 2026-05-05 22:17 | 42.82457 | 21.92430 | 37056 ft | 536 kts | 157° |
| 2026-05-05 22:17 | 42.75680 | 21.96644 | 37071 ft | 536 kts | 157° |
| 2026-05-05 22:18 | 42.68877 | 22.00862 | 37081 ft | 536 kts | 157° |
| 2026-05-05 22:18 | 42.62110 | 22.05050 | 37084 ft | 538 kts | 157° |
| 2026-05-05 22:19 | 42.55310 | 22.09247 | 37089 ft | 537 kts | 157° |
| 2026-05-05 22:19 | 42.48516 | 22.13431 | 37096 ft | 539 kts | 157° |
| 2026-05-05 22:20 | 42.41699 | 22.17618 | 37094 ft | 538 kts | 157° |
| 2026-05-05 22:20 | 42.34873 | 22.21801 | 37098 ft | 540 kts | 157° |
| 2026-05-05 22:21 | 42.28045 | 22.25921 | 37223 ft | 544 kts | 159° |
| 2026-05-05 22:21 | 42.24532 | 22.27913 | 37703 ft | 541 kts | 159° |
| 2026-05-05 22:21 | 42.21078 | 22.29864 | 38284 ft | 538 kts | 159° |
| 2026-05-05 22:21 | 42.17677 | 22.31785 | 38834 ft | 535 kts | 158° |
| 2026-05-05 22:22 | 42.14244 | 22.33723 | 39094 ft | 536 kts | 159° |
| 2026-05-05 22:22 | 42.07366 | 22.37605 | 39078 ft | 535 kts | 158° |
| 2026-05-05 22:23 | 42.00525 | 22.41462 | 39078 ft | 536 kts | 158° |
| 2026-05-05 22:23 | 41.93664 | 22.45324 | 39088 ft | 535 kts | 158° |
| 2026-05-05 22:24 | 41.86669 | 22.49252 | 39091 ft | 537 kts | 158° |
| 2026-05-05 22:24 | 41.79407 | 22.53323 | 39098 ft | 536 kts | 158° |
| 2026-05-05 22:25 | 41.72335 | 22.57277 | 39097 ft | 537 kts | 158° |
| 2026-05-05 22:25 | 41.65358 | 22.61169 | 39086 ft | 537 kts | 158° |
| 2026-05-05 22:26 | 41.58475 | 22.65000 | 39071 ft | 539 kts | 158° |
| 2026-05-05 22:26 | 41.51568 | 22.68836 | 39052 ft | 538 kts | 159° |
| 2026-05-05 22:27 | 41.44791 | 22.72591 | 39053 ft | 538 kts | 159° |
| 2026-05-05 22:27 | 41.37870 | 22.76417 | 39050 ft | 538 kts | 159° |
| 2026-05-05 22:28 | 41.31169 | 22.80937 | 39042 ft | 540 kts | 146° |
| 2026-05-05 22:28 | 41.25109 | 22.86855 | 39048 ft | 542 kts | 143° |
| 2026-05-05 22:29 | 41.19056 | 22.92867 | 39050 ft | 542 kts | 143° |
| 2026-05-05 22:29 | 41.12924 | 22.98933 | 39050 ft | 544 kts | 143° |
| 2026-05-05 22:30 | 41.06707 | 23.05063 | 39049 ft | 544 kts | 143° |
| 2026-05-05 22:30 | 41.00281 | 23.11379 | 39053 ft | 542 kts | 143° |
| 2026-05-05 22:31 | 40.93890 | 23.17644 | 39054 ft | 543 kts | 143° |
| 2026-05-05 22:31 | 40.87711 | 23.23685 | 39036 ft | 543 kts | 143° |
| 2026-05-05 22:32 | 40.81573 | 23.29672 | 39037 ft | 542 kts | 143° |
| 2026-05-05 22:32 | 40.75478 | 23.35603 | 39032 ft | 543 kts | 143° |
| 2026-05-05 22:33 | 40.69439 | 23.41465 | 39040 ft | 541 kts | 143° |
| 2026-05-05 22:33 | 40.63193 | 23.47514 | 39058 ft | 541 kts | 143° |
| 2026-05-05 22:34 | 40.57044 | 23.53454 | 39059 ft | 542 kts | 143° |
| 2026-05-05 22:34 | 40.50891 | 23.59386 | 39045 ft | 543 kts | 143° |
| 2026-05-05 22:35 | 40.44865 | 23.65181 | 39041 ft | 543 kts | 144° |
| 2026-05-05 22:35 | 40.38699 | 23.71097 | 39060 ft | 542 kts | 144° |
| 2026-05-05 22:36 | 40.32536 | 23.76996 | 39037 ft | 542 kts | 144° |
| 2026-05-05 22:36 | 40.26385 | 23.82870 | 39043 ft | 542 kts | 144° |
| 2026-05-05 22:37 | 40.20085 | 23.88873 | 39025 ft | 542 kts | 144° |
| 2026-05-05 22:37 | 40.13752 | 23.94893 | 39034 ft | 542 kts | 144° |
| 2026-05-05 22:38 | 40.07452 | 24.00867 | 39040 ft | 542 kts | 144° |
| 2026-05-05 22:38 | 40.01331 | 24.06659 | 39038 ft | 542 kts | 144° |
| 2026-05-05 22:39 | 39.94872 | 24.12756 | 39045 ft | 544 kts | 144° |
| 2026-05-05 22:39 | 39.88534 | 24.18724 | 39037 ft | 545 kts | 144° |
| 2026-05-05 22:40 | 39.82157 | 24.24717 | 39036 ft | 545 kts | 144° |
| 2026-05-05 22:40 | 39.76024 | 24.30465 | 39035 ft | 544 kts | 144° |
| 2026-05-05 22:41 | 39.69577 | 24.36495 | 39044 ft | 544 kts | 144° |
| 2026-05-05 22:41 | 39.63133 | 24.42507 | 39026 ft | 544 kts | 144° |
| 2026-05-05 22:41 | 39.59919 | 24.45501 | 39038 ft | 529 kts | 144° |
| 2026-05-05 22:42 | 39.56904 | 24.48306 | 39036 ft | 514 kts | 144° |
| 2026-05-05 22:42 | 39.50985 | 24.53805 | 39030 ft | 516 kts | 144° |
| 2026-05-05 22:43 | 39.45037 | 24.59317 | 39041 ft | 517 kts | 144° |
| 2026-05-05 22:43 | 39.38899 | 24.64993 | 39042 ft | 516 kts | 144° |
| 2026-05-05 22:44 | 39.32903 | 24.70527 | 39034 ft | 517 kts | 145° |
| 2026-05-05 22:44 | 39.26907 | 24.76048 | 39039 ft | 517 kts | 145° |
| 2026-05-05 22:45 | 39.20751 | 24.81705 | 39041 ft | 516 kts | 145° |
| 2026-05-05 22:45 | 39.14861 | 24.87105 | 39033 ft | 518 kts | 145° |
| 2026-05-05 22:46 | 39.08661 | 24.92576 | 39040 ft | 517 kts | 149° |
| 2026-05-05 22:46 | 39.02291 | 24.97513 | 39033 ft | 517 kts | 150° |
| 2026-05-05 22:47 | 38.95952 | 25.02396 | 39047 ft | 518 kts | 150° |
| 2026-05-05 22:47 | 38.89514 | 25.07345 | 39037 ft | 518 kts | 150° |
| 2026-05-05 22:48 | 38.83452 | 25.11997 | 39032 ft | 518 kts | 150° |
| 2026-05-05 22:48 | 38.77190 | 25.16791 | 39027 ft | 518 kts | 150° |
| 2026-05-05 22:49 | 38.70784 | 25.21686 | 39042 ft | 518 kts | 150° |
| 2026-05-05 22:49 | 38.64394 | 25.26558 | 39031 ft | 520 kts | 150° |
| 2026-05-05 22:50 | 38.57979 | 25.31439 | 39038 ft | 520 kts | 150° |
| 2026-05-05 22:50 | 38.51606 | 25.36278 | 39030 ft | 522 kts | 150° |
| 2026-05-05 22:51 | 38.45322 | 25.41039 | 39040 ft | 520 kts | 150° |
| 2026-05-05 22:51 | 38.39165 | 25.45696 | 39046 ft | 522 kts | 150° |
| 2026-05-05 22:52 | 38.32967 | 25.50373 | 39048 ft | 521 kts | 150° |
| 2026-05-05 22:52 | 38.26620 | 25.55153 | 39044 ft | 521 kts | 150° |
| 2026-05-05 22:53 | 38.20339 | 25.59874 | 39050 ft | 522 kts | 150° |
| 2026-05-05 22:53 | 38.13931 | 25.64680 | 39050 ft | 522 kts | 150° |
| 2026-05-05 22:54 | 38.07603 | 25.69417 | 39056 ft | 521 kts | 152° |
| 2026-05-05 22:54 | 38.01096 | 25.74278 | 39061 ft | 522 kts | 151° |
| 2026-05-05 22:55 | 37.94747 | 25.79011 | 39053 ft | 522 kts | 151° |
| 2026-05-05 22:55 | 37.88348 | 25.83771 | 39049 ft | 523 kts | 151° |
| 2026-05-05 22:56 | 37.81998 | 25.88485 | 39050 ft | 526 kts | 151° |
| 2026-05-05 22:56 | 37.75559 | 25.93256 | 39043 ft | 524 kts | 151° |
| 2026-05-05 22:57 | 37.69193 | 25.97964 | 39035 ft | 525 kts | 152° |
| 2026-05-05 22:57 | 37.62776 | 26.02699 | 39051 ft | 525 kts | 151° |
| 2026-05-05 22:58 | 37.56401 | 26.07394 | 39045 ft | 524 kts | 151° |
| 2026-05-05 22:58 | 37.49934 | 26.12147 | 39054 ft | 526 kts | 152° |
| 2026-05-05 22:59 | 37.43337 | 26.16986 | 39052 ft | 525 kts | 151° |
| 2026-05-05 22:59 | 37.36639 | 26.21888 | 39057 ft | 527 kts | 151° |
| 2026-05-05 23:00 | 37.26884 | 26.29010 | 39048 ft | 526 kts | 151° |
| 2026-05-05 23:00 | 37.20381 | 26.33746 | 39059 ft | 527 kts | 151° |
| 2026-05-05 23:01 | 37.13760 | 26.38558 | 39052 ft | 528 kts | 151° |
| 2026-05-05 23:01 | 37.07215 | 26.43305 | 39063 ft | 526 kts | 151° |
| 2026-05-05 23:02 | 37.00570 | 26.48114 | 39050 ft | 527 kts | 151° |
| 2026-05-05 23:02 | 36.94015 | 26.52850 | 39060 ft | 526 kts | 152° |
| 2026-05-05 23:03 | 36.87605 | 26.57470 | 39035 ft | 525 kts | 152° |
| 2026-05-05 23:03 | 36.81275 | 26.62025 | 39028 ft | 527 kts | 152° |
| 2026-05-05 23:04 | 36.74844 | 26.66643 | 39045 ft | 524 kts | 152° |
| 2026-05-05 23:04 | 36.68272 | 26.71353 | 39033 ft | 524 kts | 152° |
| 2026-05-05 23:05 | 36.61597 | 26.76128 | 39035 ft | 523 kts | 152° |
| 2026-05-05 23:05 | 36.54945 | 26.80875 | 39037 ft | 526 kts | 152° |
| 2026-05-05 23:06 | 36.48394 | 26.85543 | 39040 ft | 524 kts | 152° |
| 2026-05-05 23:06 | 36.41948 | 26.90127 | 39035 ft | 523 kts | 152° |
| 2026-05-05 23:07 | 36.35354 | 26.94805 | 39034 ft | 525 kts | 152° |
| 2026-05-05 23:07 | 36.28762 | 26.99474 | 39036 ft | 525 kts | 152° |
| 2026-05-05 23:08 | 36.22173 | 27.04132 | 39032 ft | 523 kts | 152° |
| 2026-05-05 23:08 | 36.15665 | 27.08723 | 39042 ft | 523 kts | 152° |
| 2026-05-05 23:09 | 36.09313 | 27.13195 | 39027 ft | 525 kts | 152° |
| 2026-05-05 23:09 | 36.02985 | 27.17642 | 39032 ft | 525 kts | 152° |
| 2026-05-05 23:10 | 35.96371 | 27.22283 | 39031 ft | 524 kts | 152° |
| 2026-05-05 23:10 | 35.89733 | 27.26930 | 39043 ft | 522 kts | 152° |
| 2026-05-05 23:11 | 35.83040 | 27.31606 | 39022 ft | 524 kts | 152° |
| 2026-05-05 23:11 | 35.76442 | 27.36208 | 39023 ft | 524 kts | 152° |
| 2026-05-05 23:12 | 35.70095 | 27.40625 | 39023 ft | 522 kts | 152° |
| 2026-05-05 23:12 | 35.63674 | 27.45087 | 39028 ft | 523 kts | 152° |
| 2026-05-05 23:13 | 35.57360 | 27.49466 | 39020 ft | 521 kts | 153° |
| 2026-05-05 23:13 | 35.50994 | 27.53872 | 39028 ft | 523 kts | 153° |
| 2026-05-05 23:14 | 35.44465 | 27.58383 | 39031 ft | 521 kts | 153° |
| 2026-05-05 23:14 | 35.37899 | 27.62911 | 39038 ft | 520 kts | 152° |
| 2026-05-05 23:15 | 35.31578 | 27.67263 | 39029 ft | 520 kts | 153° |
| 2026-05-05 23:15 | 35.25116 | 27.71703 | 39024 ft | 519 kts | 154° |
| 2026-05-05 23:16 | 35.18699 | 27.76104 | 39033 ft | 517 kts | 154° |
| 2026-05-05 23:16 | 35.12276 | 27.80501 | 39035 ft | 517 kts | 153° |
| 2026-05-05 23:17 | 35.05826 | 27.84908 | 39015 ft | 516 kts | 154° |
| 2026-05-05 23:17 | 34.99313 | 27.89351 | 39019 ft | 516 kts | 154° |
| 2026-05-05 23:18 | 34.92797 | 27.93787 | 39021 ft | 516 kts | 154° |
| 2026-05-05 23:18 | 34.86222 | 27.98255 | 39014 ft | 516 kts | 154° |
| 2026-05-05 23:19 | 34.79671 | 28.02699 | 39024 ft | 512 kts | 154° |
| 2026-05-05 23:19 | 34.73163 | 28.07105 | 39032 ft | 514 kts | 154° |
| 2026-05-05 23:20 | 34.66654 | 28.11505 | 39037 ft | 512 kts | 154° |
| 2026-05-05 23:20 | 34.60200 | 28.15859 | 39034 ft | 512 kts | 154° |
| 2026-05-05 23:21 | 34.53733 | 28.20213 | 39040 ft | 513 kts | 154° |
| 2026-05-05 23:21 | 34.47221 | 28.24591 | 39048 ft | 510 kts | 154° |
| 2026-05-05 23:22 | 34.40812 | 28.28892 | 39042 ft | 512 kts | 154° |
| 2026-05-05 23:22 | 34.34340 | 28.33227 | 39051 ft | 508 kts | 154° |
| 2026-05-05 23:23 | 34.27923 | 28.37517 | 39044 ft | 512 kts | 154° |